^^
Saratoga-Weather Station Historical Data
Daily Summary for September 28, 2022 Units:  Metric    English   Both
Daily Weekly Monthly Yearly Custom
  High: Low: Average:
Temperature: 12.7 °C °C 8.8 °C
Dew Point: 9.4 °C °C 7.3 °C
Humidity: 93% % 83%
Wind Speed: 27.4km/h 0km/h 5.8km/h
Wind Gust: 27.4km/h - -
Wind- - West
Pressure: 1001.4 hPa 998.0 hPa -
Precipitation: 19.3 mm    
Historical Graphs
 
 
Tabular Data for September 28, 2022
Time Temperature Dew Point Pressure Wind Wind Speed Wind Gust Humidity Rainfall Rate (Hourly) solar
00:02 10.1 °C 8.9 °C 998.3 hPa WSW 7.9 km/h 19.3 km/h 92% 1.0 mm 0 W/m2
00:07 10.1 °C 8.9 °C 998.3 hPa West 13 km/h 14.5 km/h 92% 0.8 mm 0 W/m2
00:12 10 °C 8.8 °C 998.6 hPa West 6.4 km/h 16.1 km/h 92% 0.5 mm 0 W/m2
00:17 9.9 °C 8.7 °C 998.6 hPa West 6.4 km/h 14.5 km/h 92% 0.5 mm 0 W/m2
00:22 9.9 °C 8.8 °C 998.6 hPa West 6.4 km/h 11.3 km/h 93% 0.5 mm 0 W/m2
00:27 9.9 °C 8.7 °C 998.6 hPa West 6.4 km/h 17.7 km/h 92% 0.5 mm 0 W/m2
00:32 9.8 °C 8.6 °C 998.6 hPa West 13 km/h 14.5 km/h 92% 0.5 mm 0 W/m2
00:37 9.8 °C 8.7 °C 998.6 hPa West 14.3 km/h 14.5 km/h 93% 0.5 mm 0 W/m2
00:42 9.8 °C 8.7 °C 998.6 hPa West 4.7 km/h 9.7 km/h 93% 0.5 mm 0 W/m2
00:47 9.8 °C 8.7 °C 998.6 hPa SW 6.4 km/h 16.1 km/h 93% 0.5 mm 0 W/m2
00:52 9.7 °C 8.6 °C 998.6 hPa WSW 7.9 km/h 16.1 km/h 93% 0.5 mm 0 W/m2
00:57 9.7 °C 8.6 °C 998.6 hPa WSW 7.9 km/h 11.3 km/h 93% 0.5 mm 0 W/m2
01:02 9.7 °C 8.6 °C 998.6 hPa West 11.1 km/h 19.3 km/h 93% 0.2 mm 0 W/m2
01:07 9.7 °C 8.6 °C 998.6 hPa West 6.4 km/h 14.5 km/h 93% 0.2 mm 0 W/m2
01:12 9.7 °C 8.6 °C 998.6 hPa WSW 7.9 km/h 19.3 km/h 93% 0.0 mm 0 W/m2
01:17 9.7 °C 8.6 °C 998.6 hPa West 4.7 km/h 22.5 km/h 93% 0.0 mm 0 W/m2
01:22 9.7 °C 8.6 °C 998.6 hPa WSW 7.9 km/h 16.1 km/h 93% 0.0 mm 0 W/m2
01:27 9.7 °C 8.6 °C 998.6 hPa WNW 13 km/h 17.7 km/h 93% 0.0 mm 0 W/m2
01:32 9.7 °C 8.6 °C 998.6 hPa WNW 6.4 km/h 14.5 km/h 93% 0.0 mm 0 W/m2
01:37 9.7 °C 8.6 °C 998.6 hPa West 19.5 km/h 20.9 km/h 93% 0.0 mm 0 W/m2
01:42 9.7 °C 8.5 °C 998.6 hPa West 6.4 km/h 14.5 km/h 92% 0.0 mm 0 W/m2
01:47 9.7 °C 8.5 °C 998.6 hPa West 11.1 km/h 19.3 km/h 92% 0.0 mm 0 W/m2
01:52 9.7 °C 8.6 °C 998.6 hPa WNW 4.7 km/h 11.3 km/h 93% 0.0 mm 0 W/m2
01:57 9.7 °C 8.6 °C 998.6 hPa NW 19.3 km/h 19.3 km/h 93% 0.0 mm 0 W/m2
02:02 9.7 °C 8.6 °C 998.6 hPa WNW 7.9 km/h 17.7 km/h 93% 0.2 mm 0 W/m2
02:07 9.6 °C 8.5 °C 998.6 hPa West 11.1 km/h 12.9 km/h 93% 0.2 mm 0 W/m2
02:12 9.6 °C 8.5 °C 998.6 hPa WNW 24.1 km/h 24.1 km/h 93% 0.2 mm 0 W/m2
02:17 9.6 °C 8.5 °C 998.6 hPa West 3.2 km/h 11.3 km/h 93% 0.2 mm 0 W/m2
02:22 9.6 °C 8.5 °C 999.0 hPa WSW 14.3 km/h 16.1 km/h 93% 0.2 mm 0 W/m2
02:27 9.7 °C 8.6 °C 999.0 hPa WNW 13 km/h 12.9 km/h 93% 0.2 mm 0 W/m2
02:32 9.6 °C 8.4 °C 999.0 hPa WNW 7.9 km/h 16.1 km/h 92% 0.2 mm 0 W/m2
02:37 9.6 °C 8.4 °C 999.0 hPa West 11.1 km/h 17.7 km/h 92% 0.2 mm 0 W/m2
02:42 9.6 °C 8.4 °C 999.0 hPa West 4.7 km/h 14.5 km/h 92% 0.2 mm 0 W/m2
02:47 9.6 °C 8.4 °C 999.0 hPa WSW 4.7 km/h 14.5 km/h 92% 0.5 mm 0 W/m2
02:52 9.6 °C 8.4 °C 999.0 hPa NW 7.9 km/h 12.9 km/h 92% 0.5 mm 0 W/m2
02:57 9.5 °C 8.3 °C 999.0 hPa West 4.7 km/h 12.9 km/h 92% 0.2 mm 0 W/m2
03:02 9.4 °C 8.2 °C 999.3 hPa West 9.7 km/h 16.1 km/h 92% 0.5 mm 0 W/m2
03:07 9.4 °C 8.2 °C 999.0 hPa West 11.1 km/h 16.1 km/h 92% 0.5 mm 0 W/m2
03:12 9.4 °C 8.2 °C 999.3 hPa WSW 6.4 km/h 11.3 km/h 92% 0.5 mm 0 W/m2
03:17 9.4 °C 8.2 °C 999.3 hPa West 3.2 km/h 16.1 km/h 92% 0.5 mm 0 W/m2
03:22 9.3 °C 8.1 °C 999.3 hPa WNW 17.7 km/h 25.7 km/h 92% 0.5 mm 0 W/m2
03:27 9.3 °C 8.1 °C 999.3 hPa West 13 km/h 14.5 km/h 92% 0.5 mm 0 W/m2
03:33 9.3 °C 8.1 °C 999.3 hPa West 6.4 km/h 25.7 km/h 92% 0.5 mm 0 W/m2
03:38 9.3 °C 8.1 °C 999.3 hPa WSW 4.7 km/h 11.3 km/h 92% 0.5 mm 0 W/m2
03:43 9.2 °C 8 °C 999.3 hPa West 3.2 km/h 16.1 km/h 92% 0.5 mm 0 W/m2
03:48 9.2 °C 8 °C 999.3 hPa West 6.4 km/h 14.5 km/h 92% 0.2 mm 0 W/m2
03:53 9.2 °C 8 °C 999.7 hPa West 9.7 km/h 12.9 km/h 92% 0.2 mm 0 W/m2
03:58 9.1 °C 7.9 °C 999.7 hPa WNW 9.7 km/h 16.1 km/h 92% 0.2 mm 0 W/m2
04:03 9.1 °C 7.9 °C 999.7 hPa West 9.7 km/h 14.5 km/h 92% 0.0 mm 0 W/m2
04:08 9.1 °C 7.9 °C 999.7 hPa West 13 km/h 14.5 km/h 92% 0.0 mm 0 W/m2
04:13 9 °C 7.8 °C 999.7 hPa WSW 6.4 km/h 16.1 km/h 92% 0.0 mm 0 W/m2
04:18 8.9 °C 7.7 °C 999.7 hPa West 13 km/h 16.1 km/h 92% 0.0 mm 0 W/m2
04:23 8.9 °C 7.8 °C 999.7 hPa West 6.4 km/h 12.9 km/h 93% 0.2 mm 0 W/m2
04:28 8.8 °C 7.7 °C 999.7 hPa West 6.4 km/h 14.5 km/h 93% 0.2 mm 0 W/m2
04:33 8.8 °C 7.7 °C 999.7 hPa SW 27.4 km/h 27.4 km/h 93% 0.2 mm 0 W/m2
04:38 8.8 °C 7.7 °C 999.7 hPa NW 6.4 km/h 22.5 km/h 93% 0.2 mm 0 W/m2
04:43 8.8 °C 7.7 °C 1000.0 hPa SW 14.3 km/h 19.3 km/h 93% 0.2 mm 0 W/m2
04:48 8.8 °C 7.7 °C 1000.0 hPa WNW 7.9 km/h 12.9 km/h 93% 0.2 mm 0 W/m2
04:53 8.8 °C 7.7 °C 1000.0 hPa WSW 4.7 km/h 20.9 km/h 93% 0.2 mm 0 W/m2
04:58 8.8 °C 7.7 °C 1000.0 hPa West 6.4 km/h 19.3 km/h 93% 0.2 mm 0 W/m2
05:03 8.8 °C 7.7 °C 1000.0 hPa WSW 11.1 km/h 17.7 km/h 93% 0.2 mm 0 W/m2
05:08 8.8 °C 7.6 °C 1000.3 hPa WNW 11.1 km/h 12.9 km/h 92% 0.2 mm 0 W/m2
05:13 8.8 °C 7.7 °C 1000.3 hPa NW 4.7 km/h 14.5 km/h 93% 0.5 mm 0 W/m2
05:18 8.8 °C 7.7 °C 1000.0 hPa WNW 11.1 km/h 16.1 km/h 93% 0.5 mm 0 W/m2
05:23 8.8 °C 7.6 °C 1000.0 hPa WNW 6.4 km/h 11.3 km/h 92% 0.2 mm 0 W/m2
05:28 8.8 °C 7.6 °C 1000.3 hPa West 11.1 km/h 12.9 km/h 92% 0.2 mm 0 W/m2
05:33 8.7 °C 7.5 °C 1000.3 hPa West 22.7 km/h 22.5 km/h 92% 0.2 mm 0 W/m2
05:38 8.7 °C 7.5 °C 1000.3 hPa WSW 19.5 km/h 19.3 km/h 92% 0.2 mm 0 W/m2
05:43 8.6 °C 7.4 °C 1000.3 hPa WSW 22.5 km/h 22.5 km/h 92% 0.2 mm 0 W/m2
05:48 8.6 °C 7.4 °C 1000.3 hPa West 13 km/h 24.1 km/h 92% 0.2 mm 0 W/m2
05:53 8.6 °C 7.4 °C 1000.3 hPa West 4.7 km/h 19.3 km/h 92% 0.2 mm 0 W/m2
05:58 8.6 °C 7.4 °C 1000.3 hPa West 6.4 km/h 24.1 km/h 92% 0.5 mm 0 W/m2
06:03 8.6 °C 7.4 °C 1000.3 hPa WNW 7.9 km/h 16.1 km/h 92% 0.5 mm 0 W/m2
06:08 8.6 °C 7.5 °C 1000.3 hPa WNW 7.9 km/h 9.7 km/h 93% 0.5 mm 0 W/m2
06:13 8.6 °C 7.5 °C 1000.3 hPa West 13 km/h 16.1 km/h 93% 0.5 mm 0 W/m2
06:18 8.6 °C 7.5 °C 1000.3 hPa WSW 6.4 km/h 12.9 km/h 93% 0.5 mm 0 W/m2
06:23 8.6 °C 7.5 °C 1000.3 hPa SW 6.4 km/h 16.1 km/h 93% 0.5 mm 0 W/m2
06:28 8.5 °C 7.4 °C 1000.3 hPa West 4.7 km/h 9.7 km/h 93% 0.5 mm 0 W/m2
06:33 8.6 °C 7.5 °C 1000.3 hPa West 4.7 km/h 11.3 km/h 93% 0.5 mm 0 W/m2
06:38 8.6 °C 7.5 °C 1000.3 hPa West 3.2 km/h 14.5 km/h 93% 0.5 mm 0 W/m2
06:43 8.6 °C 7.5 °C 1000.3 hPa WNW 6.4 km/h 12.9 km/h 93% 0.5 mm 0 W/m2
06:48 8.7 °C 7.6 °C 1000.3 hPa West 13 km/h 14.5 km/h 93% 0.5 mm 0 W/m2
06:53 8.7 °C 7.6 °C 1000.3 hPa West 11.1 km/h 14.5 km/h 93% 0.5 mm 0 W/m2
06:58 8.7 °C 7.6 °C 1000.3 hPa WNW 13 km/h 14.5 km/h 93% 0.2 mm 0 W/m2
07:03 8.7 °C 7.5 °C 1000.3 hPa WSW 6.4 km/h 11.3 km/h 92% 0.2 mm 0 W/m2
07:08 8.7 °C 7.5 °C 1000.7 hPa West 11.1 km/h 14.5 km/h 92% 0.2 mm 0 W/m2
07:13 8.7 °C 7.5 °C 1000.3 hPa West 6.4 km/h 17.7 km/h 92% 0.0 mm 0 W/m2
07:18 8.7 °C 7.5 °C 1000.7 hPa WNW 4.7 km/h 14.5 km/h 92% 0.0 mm 0 W/m2
07:23 8.7 °C 7.5 °C 1000.7 hPa WNW 6.4 km/h 8 km/h 92% 0.0 mm 0 W/m2
07:28 8.7 °C 7.5 °C 1000.7 hPa WSW 6.4 km/h 11.3 km/h 92% 0.0 mm 0 W/m2
07:33 8.8 °C 7.6 °C 1000.7 hPa WNW 3.2 km/h 11.3 km/h 92% 0.0 mm 0 W/m2
07:38 8.8 °C 7.7 °C 1000.7 hPa WNW 6.4 km/h 9.7 km/h 93% 0.0 mm 0 W/m2
07:43 8.8 °C 7.7 °C 1000.7 hPa WNW 3.2 km/h 8 km/h 93% 0.0 mm 0 W/m2
07:48 8.8 °C 7.7 °C 1000.7 hPa West 6.4 km/h 17.7 km/h 93% 0.0 mm 0 W/m2
07:53 8.8 °C 7.7 °C 1001.0 hPa West 3.2 km/h 12.9 km/h 93% 0.0 mm 0 W/m2
07:58 8.8 °C 7.7 °C 1001.0 hPa NW 6.4 km/h 17.7 km/h 93% 0.0 mm 0 W/m2
08:03 8.8 °C 7.7 °C 1000.7 hPa NW 3.2 km/h 6.4 km/h 93% 0.0 mm 5 W/m2
08:08 8.8 °C 7.6 °C 1001.0 hPa WNW 4.7 km/h 12.9 km/h 92% 0.0 mm 9 W/m2
08:13 8.8 °C 7.6 °C 1001.0 hPa West 4.7 km/h 12.9 km/h 92% 0.0 mm 16 W/m2
08:18 8.8 °C 7.6 °C 1000.7 hPa WNW 6.4 km/h 8 km/h 92% 0.0 mm 16 W/m2
08:23 8.7 °C 7.5 °C 1001.0 hPa West 3.2 km/h 16.1 km/h 92% 0.0 mm 14 W/m2
08:28 8.7 °C 7.5 °C 1000.7 hPa West 6.4 km/h 6.4 km/h 92% 0.0 mm 25 W/m2
08:33 8.7 °C 7.5 °C 1001.0 hPa NW 4.7 km/h 16.1 km/h 92% 0.0 mm 25 W/m2
08:38 8.7 °C 7.5 °C 1001.0 hPa West 13 km/h 12.9 km/h 92% 0.0 mm 26 W/m2
08:43 8.7 °C 7.5 °C 1001.0 hPa NW 3.2 km/h 3.2 km/h 92% 0.0 mm 60 W/m2
08:48 8.8 °C 7.6 °C 1001.0 hPa West 4.7 km/h 11.3 km/h 92% 0.0 mm 53 W/m2
08:53 8.8 °C 7.6 °C 1001.0 hPa NW 3.2 km/h 16.1 km/h 92% 0.0 mm 33 W/m2
08:58 8.8 °C 7.6 °C 1001.0 hPa WSW 3.2 km/h 12.9 km/h 92% 0.0 mm 37 W/m2
09:03 8.8 °C 7.6 °C 1001.0 hPa WSW 6.4 km/h 12.9 km/h 92% 0.0 mm 39 W/m2
09:08 8.8 °C 7.4 °C 1001.0 hPa WSW 6.4 km/h 11.3 km/h 91% 0.0 mm 39 W/m2
09:13 8.7 °C 7.3 °C 1001.4 hPa WSW 3.2 km/h 12.9 km/h 91% 0.0 mm 47 W/m2
09:18 8.7 °C 7.5 °C 1001.4 hPa WNW 6.4 km/h 9.7 km/h 92% 0.0 mm 60 W/m2
09:23 8.7 °C 7.5 °C 1001.4 hPa WNW 16.3 km/h 16.1 km/h 92% 0.0 mm 58 W/m2
09:28 8.7 °C 7.3 °C 1001.0 hPa WNW 6.4 km/h 11.3 km/h 91% 0.0 mm 72 W/m2
09:33 8.7 °C 7.3 °C 1001.4 hPa West 4.7 km/h 9.7 km/h 91% 0.0 mm 77 W/m2
09:38 8.7 °C 7.3 °C 1001.4 hPa West 3.2 km/h 4.8 km/h 91% 0.0 mm 77 W/m2
09:43 8.7 °C 7.3 °C 1001.4 hPa West 6.4 km/h 12.9 km/h 91% 0.0 mm 76 W/m2
09:48 8.7 °C 7.3 °C 1001.4 hPa WNW 4.7 km/h 12.9 km/h 91% 0.2 mm 35 W/m2
09:53 8.6 °C 7.2 °C 1001.4 hPa West 6.4 km/h 20.9 km/h 91% 0.5 mm 30 W/m2
09:58 8.4 °C 7 °C 1001.4 hPa West 6.4 km/h 12.9 km/h 91% 1.0 mm 33 W/m2
10:03 8.3 °C 7.1 °C 1001.4 hPa SW 1.4 km/h 20.9 km/h 92% 1.3 mm 32 W/m2
10:08 8.3 °C 7.1 °C 1001.4 hPa West 1.4 km/h 4.8 km/h 92% 1.5 mm 30 W/m2
10:13 8.2 °C 7 °C 1001.4 hPa WSW 4.7 km/h 12.9 km/h 92% 1.5 mm 47 W/m2
10:18 8.1 °C 6.9 °C 1001.4 hPa WNW 3.2 km/h 6.4 km/h 92% 1.5 mm 107 W/m2
10:23 8.1 °C 6.9 °C 1001.4 hPa SW 3.2 km/h 4.8 km/h 92% 1.8 mm 69 W/m2
10:28 8.1 °C 6.9 °C 1001.4 hPa West 3.2 km/h 8 km/h 92% 2.0 mm 74 W/m2
10:33 8.2 °C 7 °C 1001.4 hPa West 6.4 km/h 6.4 km/h 92% 2.0 mm 146 W/m2
10:38 8.3 °C 7.2 °C 1001.4 hPa WNW 4.7 km/h 6.4 km/h 93% 2.0 mm 262 W/m2
10:43 8.5 °C 7.4 °C 1001.4 hPa South 4.7 km/h 4.8 km/h 93% 2.0 mm 158 W/m2
10:48 8.7 °C 7.6 °C 1001.4 hPa NW 3.2 km/h 6.4 km/h 93% 1.8 mm 213 W/m2
10:53 8.9 °C 7.8 °C 1001.4 hPa West 1.4 km/h 6.4 km/h 93% 1.8 mm 102 W/m2
10:58 8.9 °C 7.8 °C 1001.4 hPa West 1.4 km/h 3.2 km/h 93% 2.0 mm 123 W/m2
11:03 8.9 °C 7.8 °C 1001.4 hPa West 1.4 km/h 4.8 km/h 93% 2.3 mm 65 W/m2
11:08 8.9 °C 7.8 °C 1001.4 hPa WNW 6.4 km/h 11.3 km/h 93% 2.8 mm 63 W/m2
11:13 8.9 °C 7.8 °C 1001.4 hPa West 3.2 km/h 4.8 km/h 93% 4.1 mm 63 W/m2
11:18 8.9 °C 7.8 °C 1001.4 hPa West 6.4 km/h 9.7 km/h 93% 5.1 mm 70 W/m2
11:23 8.7 °C 7.5 °C 1001.4 hPa WNW 4.7 km/h 8 km/h 92% 5.1 mm 56 W/m2
11:28 8.5 °C 7.1 °C 1001.4 hPa West 6.4 km/h 16.1 km/h 91% 5.1 mm 63 W/m2
11:33 8.6 °C 7.2 °C 1001.4 hPa WSW 6.4 km/h 9.7 km/h 91% 5.1 mm 74 W/m2
11:38 8.6 °C 7.2 °C 1001.4 hPa West 3.2 km/h 8 km/h 91% 5.1 mm 47 W/m2
11:43 8.7 °C 7.5 °C 1001.4 hPa WSW 6.4 km/h 6.4 km/h 92% 5.1 mm 62 W/m2
11:48 8.9 °C 7.8 °C 1001.0 hPa NW 3.2 km/h 11.3 km/h 93% 5.1 mm 97 W/m2
11:53 9.3 °C 8.2 °C 1001.0 hPa West 4.7 km/h 8 km/h 93% 4.6 mm 172 W/m2
11:58 9.7 °C 8.6 °C 1001.0 hPa West 9.7 km/h 14.5 km/h 93% 4.1 mm 197 W/m2
12:03 9.9 °C 8.8 °C 1001.0 hPa WSW 3.2 km/h 11.3 km/h 93% 3.3 mm 105 W/m2
12:08 10 °C 8.8 °C 1001.0 hPa WNW 3.2 km/h 4.8 km/h 92% 2.8 mm 120 W/m2
12:13 10.1 °C 8.7 °C 1001.0 hPa WNW 3.2 km/h 16.1 km/h 91% 1.5 mm 169 W/m2
12:18 10.2 °C 8.6 °C 1001.0 hPa WSW 6.4 km/h 11.3 km/h 90% 0.2 mm 200 W/m2
12:23 10.2 °C 8.5 °C 1001.0 hPa WNW 11.1 km/h 20.9 km/h 89% 0.0 mm 229 W/m2
12:28 10.2 °C 8.3 °C 1001.0 hPa WNW 7.9 km/h 17.7 km/h 88% 0.0 mm 190 W/m2
12:33 10.2 °C 8.1 °C 1001.0 hPa WNW 3.2 km/h 17.7 km/h 87% 0.0 mm 290 W/m2
12:38 10.2 °C 8.1 °C 1001.0 hPa WNW 3.2 km/h 16.1 km/h 87% 0.0 mm 287 W/m2
12:43 10.2 °C 8.1 °C 1001.0 hPa WNW 9.7 km/h 17.7 km/h 87% 0.0 mm 216 W/m2
12:48 10.2 °C 8.1 °C 1001.0 hPa West 4.7 km/h 11.3 km/h 87% 0.0 mm 262 W/m2
12:53 10.3 °C 8.2 °C 1001.0 hPa West 9.7 km/h 17.7 km/h 87% 0.0 mm 638 W/m2
12:58 10.6 °C 8.7 °C 1000.7 hPa WNW 4.7 km/h 8 km/h 88% 0.0 mm 657 W/m2
13:03 10.9 °C 8.6 °C 1001.0 hPa WSW 11.1 km/h 16.1 km/h 86% 0.0 mm 144 W/m2
13:08 11 °C 8.6 °C 1000.7 hPa WNW 6.4 km/h 14.5 km/h 85% 0.0 mm 429 W/m2
13:13 10.9 °C 8.3 °C 1001.0 hPa West 16.3 km/h 17.7 km/h 84% 0.0 mm 162 W/m2
13:18 10.9 °C 7.9 °C 1000.7 hPa West 6.4 km/h 20.9 km/h 82% 0.0 mm 162 W/m2
13:23 11 °C 8 °C 1000.7 hPa NW 11.1 km/h 14.5 km/h 82% 0.0 mm 237 W/m2
13:28 11.1 °C 8.1 °C 1000.7 hPa WNW 6.4 km/h 17.7 km/h 82% 0.0 mm 135 W/m2
13:33 11 °C 8 °C 1000.7 hPa West 13 km/h 12.9 km/h 82% 0.0 mm 91 W/m2
13:38 10.9 °C 8.1 °C 1000.3 hPa WNW 14.3 km/h 14.5 km/h 83% 0.0 mm 244 W/m2
13:43 10.9 °C 8.3 °C 1000.3 hPa SW 3.2 km/h 12.9 km/h 84% 0.0 mm 132 W/m2
13:48 10.8 °C 8.4 °C 1000.7 hPa West 4.7 km/h 12.9 km/h 85% 0.2 mm 100 W/m2
13:54 10.4 °C 8.2 °C 1000.7 hPa WNW 9.7 km/h 9.7 km/h 86% 0.8 mm 156 W/m2
13:59 10.3 °C 8.4 °C 1000.3 hPa NW 4.7 km/h 4.8 km/h 88% 1.0 mm 229 W/m2
14:04 10.4 °C 8.8 °C 1000.7 hPa WNW 4.7 km/h 14.5 km/h 90% 1.0 mm 258 W/m2
14:09 10.5 °C 8.9 °C 1000.3 hPa WSW 7.9 km/h 11.3 km/h 90% 1.0 mm 116 W/m2
14:14 10.3 °C 8.2 °C 1001.0 hPa West 4.7 km/h 20.9 km/h 87% 1.5 mm 35 W/m2
14:19 9.4 °C 7.2 °C 1001.0 hPa WSW 7.9 km/h 17.7 km/h 86% 3.3 mm 56 W/m2
14:24 8.7 °C 6.8 °C 1000.7 hPa West 4.7 km/h 19.3 km/h 88% 3.6 mm 105 W/m2
14:29 8.4 °C 6.9 °C 1000.7 hPa WSW 13 km/h 12.9 km/h 90% 3.6 mm 107 W/m2
14:34 8.4 °C 7 °C 1000.7 hPa West 4.7 km/h 14.5 km/h 91% 3.6 mm 149 W/m2
14:39 8.4 °C 7 °C 1000.7 hPa WSW 6.4 km/h 11.3 km/h 91% 3.6 mm 141 W/m2
14:44 8.6 °C 7.4 °C 1001.0 hPa WSW 14.3 km/h 17.7 km/h 92% 3.8 mm 135 W/m2
14:49 8.6 °C 7.2 °C 1000.7 hPa NW 6.4 km/h 14.5 km/h 91% 3.6 mm 134 W/m2
14:54 8.7 °C 7.3 °C 1000.7 hPa WNW 6.4 km/h 11.3 km/h 91% 3.0 mm 195 W/m2
14:59 9.1 °C 7.9 °C 1000.7 hPa WNW 6.4 km/h 14.5 km/h 92% 2.8 mm 612 W/m2
15:04 9.4 °C 8 °C 1000.7 hPa West 9.7 km/h 16.1 km/h 91% 2.8 mm 577 W/m2
15:09 9.7 °C 8.3 °C 1000.3 hPa SW 6.4 km/h 12.9 km/h 91% 2.8 mm 573 W/m2
15:14 10.1 °C 8.5 °C 1000.3 hPa WSW 4.7 km/h 16.1 km/h 90% 2.3 mm 564 W/m2
15:19 10.5 °C 8.6 °C 1000.3 hPa West 9.7 km/h 14.5 km/h 88% 0.5 mm 471 W/m2
15:24 10.8 °C 8.7 °C 1000.3 hPa WSW 17.7 km/h 17.7 km/h 87% 0.2 mm 156 W/m2
15:29 10.7 °C 8.5 °C 1000.3 hPa Calm   14.5 km/h 86% 0.2 mm 72 W/m2
15:34 10.7 °C 8.6 °C 1000.3 hPa West 3.2 km/h 11.3 km/h 87% 0.2 mm 563 W/m2
15:39 11.1 °C 9 °C 1000.3 hPa WNW 6.4 km/h 11.3 km/h 87% 0.2 mm 715 W/m2
15:44 11.5 °C 9.2 °C 1000.3 hPa West 6.4 km/h 11.3 km/h 86% 0.0 mm 652 W/m2
15:49 12 °C 9.2 °C 1000.3 hPa West 14.3 km/h 16.1 km/h 83% 0.0 mm 626 W/m2
15:54 11.9 °C 8.7 °C 1000.3 hPa NNE 6.4 km/h 14.5 km/h 81% 0.0 mm 269 W/m2
15:59 11.7 °C 8.5 °C 1000.3 hPa NW 6.4 km/h 12.9 km/h 81% 0.0 mm 97 W/m2
16:04 11.7 °C 8.5 °C 1000.7 hPa WNW 6.4 km/h 14.5 km/h 81% 0.0 mm 512 W/m2
16:09 11.6 °C 8.5 °C 1000.3 hPa WNW 1.4 km/h 4.8 km/h 81% 0.0 mm 67 W/m2
16:14 11.4 °C 8.4 °C 1000.7 hPa West 3.2 km/h 12.9 km/h 82% 0.0 mm 118 W/m2
16:19 11.3 °C 8 °C 1000.7 hPa West 4.7 km/h 16.1 km/h 80% 0.0 mm 67 W/m2
16:24 11.1 °C 8 °C 1000.7 hPa WNW 3.2 km/h 11.3 km/h 81% 0.0 mm 160 W/m2
16:29 11.1 °C 8 °C 1000.7 hPa WNW 4.7 km/h 14.5 km/h 81% 0.0 mm 163 W/m2
16:34 11.2 °C 8.2 °C 1000.7 hPa WNW 4.7 km/h 9.7 km/h 82% 0.0 mm 452 W/m2
16:39 11.5 °C 8.5 °C 1000.7 hPa WNW 1.4 km/h 3.2 km/h 82% 0.0 mm 420 W/m2
16:44 11.9 °C 8.9 °C 1000.3 hPa WNW 1.4 km/h 3.2 km/h 82% 0.0 mm 464 W/m2
16:49 12.2 °C 9.4 °C 1000.7 hPa Calm   4.8 km/h 83% 0.0 mm 492 W/m2
16:54 12.4 °C 9.2 °C 1000.7 hPa WNW 1.4 km/h 3.2 km/h 81% 0.0 mm 144 W/m2
16:59 12.4 °C 8.7 °C 1000.7 hPa West 4.7 km/h 11.3 km/h 78% 0.0 mm 118 W/m2
17:04 12.2 °C 8.3 °C 1000.7 hPa WNW 1.4 km/h 11.3 km/h 77% 0.0 mm 390 W/m2
17:09 12.4 °C 8.3 °C 1000.7 hPa SW 4.7 km/h 14.5 km/h 76% 0.0 mm 454 W/m2
17:14 12.6 °C 8.3 °C 1000.7 hPa West 9.7 km/h 12.9 km/h 75% 0.0 mm 462 W/m2
17:19 12.7 °C 8.2 °C 1000.7 hPa West 9.7 km/h 14.5 km/h 74% 0.0 mm 98 W/m2
17:24 12.4 °C 7.9 °C 1000.7 hPa WSW 11.1 km/h 14.5 km/h 74% 0.0 mm 90 W/m2
17:29 12.1 °C 7.4 °C 1000.7 hPa West 11.1 km/h 17.7 km/h 73% 0.0 mm 84 W/m2
17:34 11.9 °C 7.4 °C 1000.7 hPa West 11.1 km/h 12.9 km/h 74% 0.0 mm 72 W/m2
17:39 11.8 °C 7.7 °C 1000.7 hPa NW 1.4 km/h 11.3 km/h 76% 0.0 mm 70 W/m2
17:44 11.6 °C 7.7 °C 1000.7 hPa WNW 3.2 km/h 9.7 km/h 77% 0.0 mm 63 W/m2
17:49 11.4 °C 7.7 °C 1000.7 hPa SW 7.9 km/h 8 km/h 78% 0.0 mm 83 W/m2
17:54 11.4 °C 7.7 °C 1000.7 hPa West 4.7 km/h 6.4 km/h 78% 0.0 mm 62 W/m2
17:59 11.4 °C 8.1 °C 1000.7 hPa West 3.2 km/h 6.4 km/h 80% 0.0 mm 37 W/m2
18:04 11.4 °C 8.1 °C 1000.7 hPa West 3.2 km/h 4.8 km/h 80% 0.0 mm 32 W/m2
18:09 11.3 °C 8 °C 1000.7 hPa West 4.7 km/h 6.4 km/h 80% 0.0 mm 25 W/m2
18:14 11.3 °C 8.3 °C 1000.7 hPa West 1.4 km/h 3.2 km/h 82% 0.0 mm 32 W/m2
18:19 11.2 °C 8.2 °C 1000.7 hPa West 6.4 km/h 6.4 km/h 82% 0.0 mm 16 W/m2
18:24 11.2 °C 8.6 °C 1000.7 hPa Calm   1.6 km/h 84% 0.0 mm 9 W/m2
18:29 11.1 °C 8.5 °C 1000.7 hPa Calm   1.6 km/h 84% 0.2 mm 7 W/m2
18:34 11 °C 8.7 °C 1000.7 hPa WNW 1.4 km/h 1.6 km/h 86% 0.5 mm 5 W/m2
18:39 10.9 °C 8.8 °C 1000.7 hPa Calm     87% 0.5 mm 0 W/m2
18:44 10.7 °C 8.8 °C 1001.0 hPa WNW 1.4 km/h 3.2 km/h 88% 0.8 mm 0 W/m2
18:49 10.6 °C 8.9 °C 1001.0 hPa WNW 1.4 km/h 4.8 km/h 89% 1.3 mm 0 W/m2
18:54 10.3 °C 8.6 °C 1001.0 hPa Calm   4.8 km/h 89% 2.0 mm 0 W/m2
18:59 10.2 °C 8.6 °C 1001.0 hPa Calm   3.2 km/h 90% 2.8 mm 26 W/m2
19:04 9.9 °C 8.3 °C 1001.0 hPa West 3.2 km/h 9.7 km/h 90% 2.8 mm 9 W/m2
19:09 9.8 °C 8.2 °C 1000.7 hPa WNW 3.2 km/h 6.4 km/h 90% 2.8 mm 5 W/m2
19:14 9.7 °C 8.1 °C 1000.7 hPa WSW 3.2 km/h 6.4 km/h 90% 2.8 mm 0 W/m2
19:19 9.6 °C 7.9 °C 1000.7 hPa WSW 1.4 km/h 9.7 km/h 89% 2.8 mm 0 W/m2
19:24 9.4 °C 7.7 °C 1000.7 hPa Calm   3.2 km/h 89% 2.8 mm 0 W/m2
19:29 9.3 °C 7.6 °C 1000.7 hPa Calm   3.2 km/h 89% 2.5 mm 0 W/m2
19:34 9.2 °C 7.5 °C 1000.7 hPa Calm   3.2 km/h 89% 2.3 mm 0 W/m2
19:39 9.1 °C 7.4 °C 1000.7 hPa Calm   3.2 km/h 89% 2.3 mm 0 W/m2
19:44 9.1 °C 7.5 °C 1000.7 hPa WNW 1.4 km/h 3.2 km/h 90% 2.0 mm 0 W/m2
19:49 8.9 °C 7.3 °C 1000.7 hPa Calm   3.2 km/h 90% 1.5 mm 0 W/m2
19:54 8.8 °C 7.2 °C 1000.3 hPa Calm   1.6 km/h 90% 0.8 mm 0 W/m2
19:59 8.8 °C 7.2 °C 1000.3 hPa Calm   1.6 km/h 90% 0.0 mm 0 W/m2
20:04 8.7 °C 7.2 °C 1000.3 hPa SW 3.2 km/h 4.8 km/h 90% 0.0 mm 0 W/m2
20:09 8.7 °C 7.2 °C 1000.3 hPa WNW 3.2 km/h 3.2 km/h 90% 0.0 mm 0 W/m2
20:14 8.7 °C 7.2 °C 1000.3 hPa Calm   1.6 km/h 90% 0.0 mm 0 W/m2
20:19 8.7 °C 7.2 °C 1000.3 hPa Calm   4.8 km/h 90% 0.0 mm 0 W/m2
20:24 8.7 °C 7.2 °C 1000.3 hPa Calm   1.6 km/h 90% 0.0 mm 0 W/m2
20:29 8.7 °C 7.3 °C 1000.3 hPa Calm   4.8 km/h 91% 0.0 mm 0 W/m2
20:34 8.7 °C 7.3 °C 1000.3 hPa Calm   3.2 km/h 91% 0.0 mm 0 W/m2
20:39 8.6 °C 7.2 °C 1000.3 hPa Calm   1.6 km/h 91% 0.0 mm 0 W/m2
20:44 8.6 °C 7.2 °C 1000.3 hPa Calm   3.2 km/h 91% 0.0 mm 0 W/m2
20:49 8.6 °C 7.2 °C 1000.3 hPa Calm   1.6 km/h 91% 0.0 mm 0 W/m2
20:54 8.6 °C 7.2 °C 1000.0 hPa North 1.4 km/h 4.8 km/h 91% 0.0 mm 0 W/m2
20:59 8.5 °C 7.1 °C 1000.3 hPa Calm   3.2 km/h 91% 0.0 mm 0 W/m2
21:04 8.4 °C 7.2 °C 1000.3 hPa Calm   4.8 km/h 92% 0.0 mm 0 W/m2
21:09 8.4 °C 7.2 °C 1000.0 hPa WSW 1.4 km/h 1.6 km/h 92% 0.0 mm 0 W/m2
21:14 8.4 °C 7.2 °C 1000.0 hPa Calm   3.2 km/h 92% 0.0 mm 0 W/m2
21:19 8.5 °C 7.3 °C 1000.0 hPa WNW 3.2 km/h 3.2 km/h 92% 0.0 mm 0 W/m2
21:24 8.6 °C 7.4 °C 1000.0 hPa East 1.4 km/h 1.6 km/h 92% 0.2 mm 0 W/m2
21:29 8.7 °C 7.5 °C 1000.0 hPa North 1.4 km/h 3.2 km/h 92% 0.2 mm 0 W/m2
21:34 8.7 °C 7.5 °C 1000.0 hPa ESE 3.2 km/h 4.8 km/h 92% 0.2 mm 0 W/m2
21:40 8.7 °C 7.5 °C 1000.0 hPa SW 1.4 km/h 1.6 km/h 92% 0.2 mm 0 W/m2
21:45 8.7 °C 7.5 °C 999.7 hPa West 1.4 km/h 6.4 km/h 92% 0.2 mm 0 W/m2
21:50 °C °C 999.7 hPa WSW 1.4 km/h 3.2 km/h % 0.2 mm W/m2
21:55 °C °C 999.7 hPa NNW 1.4 km/h 3.2 km/h % 0.2 mm W/m2
22:00 °C °C 999.7 hPa Calm   1.6 km/h % 0.2 mm W/m2
22:05 °C °C 999.7 hPa Calm   3.2 km/h % 0.2 mm W/m2
22:10 °C °C 999.3 hPa East 3.2 km/h 4.8 km/h % 0.2 mm W/m2
22:15 °C °C 999.3 hPa Calm   1.6 km/h % 0.2 mm W/m2
22:20 °C °C 999.3 hPa SSW 1.4 km/h 3.2 km/h % 0.2 mm W/m2
22:25 °C °C 999.3 hPa South 3.2 km/h 3.2 km/h % 0.0 mm W/m2
22:30 °C °C 999.3 hPa Calm   4.8 km/h % 0.0 mm W/m2
22:35 °C °C 999.3 hPa Calm   1.6 km/h % 0.0 mm W/m2
22:40 °C °C 999.3 hPa ESE 1.4 km/h 3.2 km/h % 0.0 mm W/m2
22:45 °C °C 999.3 hPa Calm   1.6 km/h % 0.0 mm W/m2
22:50 °C °C 999.0 hPa Calm   3.2 km/h % 0.0 mm W/m2
22:55 °C °C 999.0 hPa Calm   3.2 km/h % 0.0 mm W/m2
23:00 °C °C 999.0 hPa Calm   3.2 km/h % 0.0 mm W/m2
23:05 °C °C 998.6 hPa NE 1.4 km/h 6.4 km/h % 0.0 mm W/m2
23:10 °C °C 998.6 hPa NNW 3.2 km/h 8 km/h % 0.0 mm W/m2
23:15 °C °C 998.6 hPa WNW 3.2 km/h 9.7 km/h % 0.0 mm W/m2
23:20 °C °C 998.6 hPa NE 3.2 km/h 4.8 km/h % 0.0 mm W/m2
23:25 °C °C 998.6 hPa North 3.2 km/h 3.2 km/h % 0.0 mm W/m2
23:30 °C °C 998.3 hPa SW 1.4 km/h 3.2 km/h % 0.0 mm W/m2
23:35 °C °C 998.3 hPa West 1.4 km/h 4.8 km/h % 0.0 mm W/m2
23:40 9.4 °C 8.3 °C 998.3 hPa NNW 1.4 km/h 3.2 km/h 93% 2.5 mm 0 W/m2
23:45 9.5 °C 8.4 °C 998.3 hPa NW 3.2 km/h 3.2 km/h 93% 3.3 mm 0 W/m2
23:50 9.5 °C 8.4 °C 998.0 hPa West 3.2 km/h 3.2 km/h 93% 3.6 mm 0 W/m2
23:55 9.5 °C 8.4 °C 998.0 hPa Calm   12.9 km/h 93% 4.1 mm 0 W/m2
Juneau County Weather
Compliments of Weather Underground - 4 mb